sensor_id;sensor_type;location;lat;lon;timestamp;P1;durP1;ratioP1;P2;durP2;ratioP2
48052;SDS011;33824;51.600;5.718;2023-06-10T00:01:54;4.70;;;2.72;;
48052;SDS011;33824;51.600;5.718;2023-06-10T00:04:23;5.53;;;3.42;;
48052;SDS011;33824;51.600;5.718;2023-06-10T00:06:48;4.30;;;2.15;;
48052;SDS011;33824;51.600;5.718;2023-06-10T00:09:15;9.52;;;3.00;;
48052;SDS011;33824;51.600;5.718;2023-06-10T00:11:41;3.92;;;2.70;;
48052;SDS011;33824;51.600;5.718;2023-06-10T00:14:07;4.60;;;2.85;;
48052;SDS011;33824;51.600;5.718;2023-06-10T00:16:33;7.32;;;2.60;;
48052;SDS011;33824;51.600;5.718;2023-06-10T00:19:02;5.03;;;2.90;;
48052;SDS011;33824;51.600;5.718;2023-06-10T00:21:29;5.38;;;3.38;;
48052;SDS011;33824;51.600;5.718;2023-06-10T00:24:06;4.63;;;3.13;;
48052;SDS011;33824;51.600;5.718;2023-06-10T00:26:40;4.82;;;3.00;;
48052;SDS011;33824;51.600;5.718;2023-06-10T00:29:07;6.80;;;3.35;;
48052;SDS011;33824;51.600;5.718;2023-06-10T00:31:37;5.47;;;2.85;;
48052;SDS011;33824;51.600;5.718;2023-06-10T00:34:03;4.45;;;3.05;;
48052;SDS011;33824;51.600;5.718;2023-06-10T00:36:29;6.38;;;3.03;;
48052;SDS011;33824;51.600;5.718;2023-06-10T00:38:56;6.80;;;3.10;;
48052;SDS011;33824;51.600;5.718;2023-06-10T00:41:25;6.53;;;3.30;;
48052;SDS011;33824;51.600;5.718;2023-06-10T00:43:52;9.13;;;2.92;;
48052;SDS011;33824;51.600;5.718;2023-06-10T00:46:17;4.18;;;2.90;;
48052;SDS011;33824;51.600;5.718;2023-06-10T00:48:44;3.92;;;2.90;;
48052;SDS011;33824;51.600;5.718;2023-06-10T00:51:10;4.32;;;2.83;;
48052;SDS011;33824;51.600;5.718;2023-06-10T00:53:39;10.15;;;3.35;;
48052;SDS011;33824;51.600;5.718;2023-06-10T00:56:06;4.15;;;2.75;;
48052;SDS011;33824;51.600;5.718;2023-06-10T00:58:32;5.45;;;3.22;;
48052;SDS011;33824;51.600;5.718;2023-06-10T01:00:58;6.38;;;3.60;;
48052;SDS011;33824;51.600;5.718;2023-06-10T01:03:24;12.57;;;3.20;;
48052;SDS011;33824;51.600;5.718;2023-06-10T01:05:52;3.97;;;2.97;;
48052;SDS011;33824;51.600;5.718;2023-06-10T01:08:56;8.95;;;3.33;;
48052;SDS011;33824;51.600;5.718;2023-06-10T01:11:43;4.88;;;3.08;;
48052;SDS011;33824;51.600;5.718;2023-06-10T01:14:13;7.97;;;3.63;;
48052;SDS011;33824;51.600;5.718;2023-06-10T01:16:41;5.25;;;3.38;;
48052;SDS011;33824;51.600;5.718;2023-06-10T01:19:08;5.20;;;3.40;;
48052;SDS011;33824;51.600;5.718;2023-06-10T01:21:33;5.90;;;3.75;;
48052;SDS011;33824;51.600;5.718;2023-06-10T01:23:59;9.85;;;3.80;;
48052;SDS011;33824;51.600;5.718;2023-06-10T01:26:26;9.23;;;3.50;;
48052;SDS011;33824;51.600;5.718;2023-06-10T01:29:11;5.15;;;3.95;;
48052;SDS011;33824;51.600;5.718;2023-06-10T01:31:43;5.75;;;3.78;;
48052;SDS011;33824;51.600;5.718;2023-06-10T01:34:25;5.75;;;3.50;;
48052;SDS011;33824;51.600;5.718;2023-06-10T01:36:51;6.85;;;3.92;;
48052;SDS011;33824;51.600;5.718;2023-06-10T01:39:22;6.10;;;3.80;;
48052;SDS011;33824;51.600;5.718;2023-06-10T01:41:50;6.43;;;3.70;;
48052;SDS011;33824;51.600;5.718;2023-06-10T01:44:21;5.35;;;3.45;;
48052;SDS011;33824;51.600;5.718;2023-06-10T01:46:48;6.82;;;3.42;;
48052;SDS011;33824;51.600;5.718;2023-06-10T01:49:14;6.25;;;4.00;;
48052;SDS011;33824;51.600;5.718;2023-06-10T01:51:39;12.73;;;3.72;;
48052;SDS011;33824;51.600;5.718;2023-06-10T01:54:05;6.60;;;3.35;;
48052;SDS011;33824;51.600;5.718;2023-06-10T01:56:32;5.95;;;3.85;;
48052;SDS011;33824;51.600;5.718;2023-06-10T01:58:58;6.00;;;3.90;;
48052;SDS011;33824;51.600;5.718;2023-06-10T02:01:28;5.97;;;3.92;;
48052;SDS011;33824;51.600;5.718;2023-06-10T02:03:53;6.35;;;3.58;;
48052;SDS011;33824;51.600;5.718;2023-06-10T02:06:19;7.05;;;3.80;;
48052;SDS011;33824;51.600;5.718;2023-06-10T02:08:45;10.70;;;3.70;;
48052;SDS011;33824;51.600;5.718;2023-06-10T02:11:11;6.88;;;3.70;;
48052;SDS011;33824;51.600;5.718;2023-06-10T02:13:37;5.30;;;3.70;;
48052;SDS011;33824;51.600;5.718;2023-06-10T02:16:03;6.72;;;3.58;;
48052;SDS011;33824;51.600;5.718;2023-06-10T02:18:30;14.82;;;3.80;;
48052;SDS011;33824;51.600;5.718;2023-06-10T02:20:56;6.72;;;3.78;;
48052;SDS011;33824;51.600;5.718;2023-06-10T02:23:22;8.63;;;4.30;;
48052;SDS011;33824;51.600;5.718;2023-06-10T02:25:47;7.13;;;3.78;;
48052;SDS011;33824;51.600;5.718;2023-06-10T02:28:13;5.03;;;3.72;;
48052;SDS011;33824;51.600;5.718;2023-06-10T02:30:40;7.07;;;3.75;;
48052;SDS011;33824;51.600;5.718;2023-06-10T02:33:07;7.40;;;4.25;;
48052;SDS011;33824;51.600;5.718;2023-06-10T02:35:35;5.05;;;3.75;;
48052;SDS011;33824;51.600;5.718;2023-06-10T02:38:04;8.43;;;3.97;;
48052;SDS011;33824;51.600;5.718;2023-06-10T02:40:30;7.47;;;4.13;;
48052;SDS011;33824;51.600;5.718;2023-06-10T02:42:56;6.53;;;4.03;;
48052;SDS011;33824;51.600;5.718;2023-06-10T02:45:23;5.78;;;4.13;;
48052;SDS011;33824;51.600;5.718;2023-06-10T02:47:49;11.15;;;4.22;;
48052;SDS011;33824;51.600;5.718;2023-06-10T02:50:14;13.48;;;4.53;;
48052;SDS011;33824;51.600;5.718;2023-06-10T02:52:40;8.93;;;4.38;;
48052;SDS011;33824;51.600;5.718;2023-06-10T02:55:06;13.50;;;4.20;;
48052;SDS011;33824;51.600;5.718;2023-06-10T02:57:32;8.93;;;4.22;;
48052;SDS011;33824;51.600;5.718;2023-06-10T02:59:58;6.25;;;3.85;;
48052;SDS011;33824;51.600;5.718;2023-06-10T03:02:24;8.48;;;4.47;;
48052;SDS011;33824;51.600;5.718;2023-06-10T03:04:56;7.30;;;4.07;;
48052;SDS011;33824;51.600;5.718;2023-06-10T03:07:22;8.68;;;4.20;;
48052;SDS011;33824;51.600;5.718;2023-06-10T03:09:48;5.88;;;4.03;;
48052;SDS011;33824;51.600;5.718;2023-06-10T03:12:14;7.93;;;4.18;;
48052;SDS011;33824;51.600;5.718;2023-06-10T03:14:40;12.07;;;4.97;;
48052;SDS011;33824;51.600;5.718;2023-06-10T03:17:07;7.55;;;4.63;;
48052;SDS011;33824;51.600;5.718;2023-06-10T03:19:33;8.43;;;4.85;;
48052;SDS011;33824;51.600;5.718;2023-06-10T03:22:07;7.57;;;4.47;;
48052;SDS011;33824;51.600;5.718;2023-06-10T03:24:36;7.20;;;4.20;;
48052;SDS011;33824;51.600;5.718;2023-06-10T03:27:11;4.85;;;3.85;;
48052;SDS011;33824;51.600;5.718;2023-06-10T03:32:03;5.60;;;3.60;;
48052;SDS011;33824;51.600;5.718;2023-06-10T03:34:29;7.05;;;3.80;;
48052;SDS011;33824;51.600;5.718;2023-06-10T03:36:55;11.60;;;4.70;;
48052;SDS011;33824;51.600;5.718;2023-06-10T03:39:21;6.85;;;4.50;;
48052;SDS011;33824;51.600;5.718;2023-06-10T03:41:49;5.88;;;3.67;;
48052;SDS011;33824;51.600;5.718;2023-06-10T03:44:15;12.02;;;4.15;;
48052;SDS011;33824;51.600;5.718;2023-06-10T03:46:41;8.48;;;3.90;;
48052;SDS011;33824;51.600;5.718;2023-06-10T03:49:06;7.85;;;4.22;;
48052;SDS011;33824;51.600;5.718;2023-06-10T03:51:32;7.75;;;3.63;;
48052;SDS011;33824;51.600;5.718;2023-06-10T03:53:58;8.38;;;4.00;;
48052;SDS011;33824;51.600;5.718;2023-06-10T03:56:23;6.82;;;3.92;;
48052;SDS011;33824;51.600;5.718;2023-06-10T03:58:49;7.72;;;4.10;;
48052;SDS011;33824;51.600;5.718;2023-06-10T04:01:15;6.43;;;3.85;;
48052;SDS011;33824;51.600;5.718;2023-06-10T04:03:43;6.95;;;4.28;;
48052;SDS011;33824;51.600;5.718;2023-06-10T04:06:09;8.95;;;3.63;;
48052;SDS011;33824;51.600;5.718;2023-06-10T04:08:34;7.05;;;4.32;;
48052;SDS011;33824;51.600;5.718;2023-06-10T04:11:01;6.95;;;4.13;;
48052;SDS011;33824;51.600;5.718;2023-06-10T04:13:27;7.22;;;3.53;;
48052;SDS011;33824;51.600;5.718;2023-06-10T04:15:55;14.70;;;4.60;;
48052;SDS011;33824;51.600;5.718;2023-06-10T04:18:21;6.43;;;3.63;;
48052;SDS011;33824;51.600;5.718;2023-06-10T04:20:47;6.38;;;4.03;;
48052;SDS011;33824;51.600;5.718;2023-06-10T04:23:12;8.02;;;4.13;;
48052;SDS011;33824;51.600;5.718;2023-06-10T04:25:38;8.75;;;4.40;;
48052;SDS011;33824;51.600;5.718;2023-06-10T04:28:04;7.70;;;4.45;;
48052;SDS011;33824;51.600;5.718;2023-06-10T04:30:30;7.68;;;3.95;;
48052;SDS011;33824;51.600;5.718;2023-06-10T04:32:56;8.25;;;4.50;;
48052;SDS011;33824;51.600;5.718;2023-06-10T04:35:22;6.60;;;4.15;;
48052;SDS011;33824;51.600;5.718;2023-06-10T04:37:48;8.35;;;3.88;;
48052;SDS011;33824;51.600;5.718;2023-06-10T04:40:13;7.28;;;3.83;;
48052;SDS011;33824;51.600;5.718;2023-06-10T04:42:41;7.45;;;4.35;;
48052;SDS011;33824;51.600;5.718;2023-06-10T04:45:07;4.82;;;3.78;;
48052;SDS011;33824;51.600;5.718;2023-06-10T04:47:33;8.32;;;4.30;;
48052;SDS011;33824;51.600;5.718;2023-06-10T04:49:59;8.50;;;4.03;;
48052;SDS011;33824;51.600;5.718;2023-06-10T04:52:26;8.05;;;3.90;;
48052;SDS011;33824;51.600;5.718;2023-06-10T04:54:52;7.60;;;4.00;;
48052;SDS011;33824;51.600;5.718;2023-06-10T04:57:19;8.73;;;3.90;;
48052;SDS011;33824;51.600;5.718;2023-06-10T04:59:45;11.93;;;3.90;;
48052;SDS011;33824;51.600;5.718;2023-06-10T05:02:11;6.28;;;3.78;;
48052;SDS011;33824;51.600;5.718;2023-06-10T05:04:37;7.78;;;4.10;;
48052;SDS011;33824;51.600;5.718;2023-06-10T05:07:03;7.53;;;4.40;;
48052;SDS011;33824;51.600;5.718;2023-06-10T05:09:29;6.85;;;3.83;;
48052;SDS011;33824;51.600;5.718;2023-06-10T05:11:55;6.38;;;4.00;;
48052;SDS011;33824;51.600;5.718;2023-06-10T05:14:21;5.80;;;4.07;;
48052;SDS011;33824;51.600;5.718;2023-06-10T05:16:47;7.13;;;3.65;;
48052;SDS011;33824;51.600;5.718;2023-06-10T05:19:13;7.13;;;4.22;;
48052;SDS011;33824;51.600;5.718;2023-06-10T05:21:39;6.88;;;3.70;;
48052;SDS011;33824;51.600;5.718;2023-06-10T05:24:04;8.32;;;3.55;;
48052;SDS011;33824;51.600;5.718;2023-06-10T05:26:31;8.65;;;4.68;;
48052;SDS011;33824;51.600;5.718;2023-06-10T05:28:58;7.55;;;3.78;;
48052;SDS011;33824;51.600;5.718;2023-06-10T05:31:23;6.15;;;3.80;;
48052;SDS011;33824;51.600;5.718;2023-06-10T05:33:49;6.97;;;3.83;;
48052;SDS011;33824;51.600;5.718;2023-06-10T05:36:15;8.23;;;4.00;;
48052;SDS011;33824;51.600;5.718;2023-06-10T05:38:40;10.68;;;4.40;;
48052;SDS011;33824;51.600;5.718;2023-06-10T05:41:06;6.32;;;3.90;;
48052;SDS011;33824;51.600;5.718;2023-06-10T05:43:32;7.15;;;4.15;;
48052;SDS011;33824;51.600;5.718;2023-06-10T05:45:57;9.50;;;3.63;;
48052;SDS011;33824;51.600;5.718;2023-06-10T05:48:23;5.80;;;3.63;;
48052;SDS011;33824;51.600;5.718;2023-06-10T05:50:49;13.93;;;3.63;;
48052;SDS011;33824;51.600;5.718;2023-06-10T05:53:15;8.40;;;4.18;;
48052;SDS011;33824;51.600;5.718;2023-06-10T05:55:43;8.70;;;4.00;;
48052;SDS011;33824;51.600;5.718;2023-06-10T05:58:10;6.75;;;4.10;;
48052;SDS011;33824;51.600;5.718;2023-06-10T06:00:38;6.40;;;3.50;;
48052;SDS011;33824;51.600;5.718;2023-06-10T06:03:06;8.48;;;3.47;;
48052;SDS011;33824;51.600;5.718;2023-06-10T06:05:32;7.45;;;3.58;;
48052;SDS011;33824;51.600;5.718;2023-06-10T06:08:03;6.60;;;3.72;;
48052;SDS011;33824;51.600;5.718;2023-06-10T06:10:29;8.52;;;3.58;;
48052;SDS011;33824;51.600;5.718;2023-06-10T06:12:56;5.80;;;3.40;;
48052;SDS011;33824;51.600;5.718;2023-06-10T06:15:21;6.15;;;3.65;;
48052;SDS011;33824;51.600;5.718;2023-06-10T06:17:47;5.13;;;3.88;;
48052;SDS011;33824;51.600;5.718;2023-06-10T06:20:12;10.05;;;3.47;;
48052;SDS011;33824;51.600;5.718;2023-06-10T06:22:38;7.15;;;3.25;;
48052;SDS011;33824;51.600;5.718;2023-06-10T06:25:04;7.40;;;3.30;;
48052;SDS011;33824;51.600;5.718;2023-06-10T06:27:30;6.53;;;3.38;;
48052;SDS011;33824;51.600;5.718;2023-06-10T06:29:56;5.85;;;3.47;;
48052;SDS011;33824;51.600;5.718;2023-06-10T06:32:22;8.63;;;3.72;;
48052;SDS011;33824;51.600;5.718;2023-06-10T06:34:47;7.78;;;3.33;;
48052;SDS011;33824;51.600;5.718;2023-06-10T06:37:25;13.23;;;3.25;;
48052;SDS011;33824;51.600;5.718;2023-06-10T06:39:51;7.70;;;4.03;;
48052;SDS011;33824;51.600;5.718;2023-06-10T06:42:17;5.57;;;3.20;;
48052;SDS011;33824;51.600;5.718;2023-06-10T06:44:43;5.95;;;3.30;;
48052;SDS011;33824;51.600;5.718;2023-06-10T06:47:09;5.90;;;3.55;;
48052;SDS011;33824;51.600;5.718;2023-06-10T06:49:34;7.28;;;3.63;;
48052;SDS011;33824;51.600;5.718;2023-06-10T06:52:00;5.47;;;3.17;;
48052;SDS011;33824;51.600;5.718;2023-06-10T06:54:25;6.30;;;3.08;;
48052;SDS011;33824;51.600;5.718;2023-06-10T06:56:51;5.40;;;2.72;;
48052;SDS011;33824;51.600;5.718;2023-06-10T06:59:16;6.95;;;3.00;;
48052;SDS011;33824;51.600;5.718;2023-06-10T07:01:44;4.97;;;3.10;;
48052;SDS011;33824;51.600;5.718;2023-06-10T07:04:10;5.65;;;2.85;;
48052;SDS011;33824;51.600;5.718;2023-06-10T07:06:36;6.78;;;3.10;;
48052;SDS011;33824;51.600;5.718;2023-06-10T07:09:03;6.45;;;3.83;;
48052;SDS011;33824;51.600;5.718;2023-06-10T07:11:30;6.47;;;3.22;;
48052;SDS011;33824;51.600;5.718;2023-06-10T07:13:56;5.13;;;3.15;;
48052;SDS011;33824;51.600;5.718;2023-06-10T07:16:22;5.47;;;3.08;;
48052;SDS011;33824;51.600;5.718;2023-06-10T07:18:47;9.73;;;3.22;;
48052;SDS011;33824;51.600;5.718;2023-06-10T07:21:13;12.98;;;3.60;;
48052;SDS011;33824;51.600;5.718;2023-06-10T07:23:42;6.50;;;3.03;;
48052;SDS011;33824;51.600;5.718;2023-06-10T07:26:08;7.97;;;3.20;;
48052;SDS011;33824;51.600;5.718;2023-06-10T07:28:39;6.78;;;3.47;;
48052;SDS011;33824;51.600;5.718;2023-06-10T07:31:08;8.20;;;2.75;;
48052;SDS011;33824;51.600;5.718;2023-06-10T07:33:33;7.07;;;2.88;;
48052;SDS011;33824;51.600;5.718;2023-06-10T07:36:00;4.78;;;2.60;;
48052;SDS011;33824;51.600;5.718;2023-06-10T07:38:25;5.30;;;3.10;;
48052;SDS011;33824;51.600;5.718;2023-06-10T07:40:51;6.43;;;3.15;;
48052;SDS011;33824;51.600;5.718;2023-06-10T07:43:17;6.75;;;2.95;;
48052;SDS011;33824;51.600;5.718;2023-06-10T07:45:43;7.03;;;2.63;;
48052;SDS011;33824;51.600;5.718;2023-06-10T07:48:09;4.43;;;2.63;;
48052;SDS011;33824;51.600;5.718;2023-06-10T07:50:35;6.03;;;2.75;;
48052;SDS011;33824;51.600;5.718;2023-06-10T07:53:01;4.32;;;2.60;;
48052;SDS011;33824;51.600;5.718;2023-06-10T07:55:27;5.50;;;3.33;;
48052;SDS011;33824;51.600;5.718;2023-06-10T07:57:53;5.03;;;3.00;;
48052;SDS011;33824;51.600;5.718;2023-06-10T08:00:19;4.38;;;2.65;;
48052;SDS011;33824;51.600;5.718;2023-06-10T08:02:45;11.02;;;3.00;;
48052;SDS011;33824;51.600;5.718;2023-06-10T08:05:11;4.68;;;2.75;;
48052;SDS011;33824;51.600;5.718;2023-06-10T08:07:37;5.45;;;2.63;;
48052;SDS011;33824;51.600;5.718;2023-06-10T08:10:03;5.75;;;3.33;;
48052;SDS011;33824;51.600;5.718;2023-06-10T08:12:32;4.15;;;2.42;;
48052;SDS011;33824;51.600;5.718;2023-06-10T08:14:58;4.60;;;2.75;;
48052;SDS011;33824;51.600;5.718;2023-06-10T08:17:24;4.55;;;2.40;;
48052;SDS011;33824;51.600;5.718;2023-06-10T08:19:50;5.88;;;2.65;;
48052;SDS011;33824;51.600;5.718;2023-06-10T08:22:15;9.13;;;3.30;;
48052;SDS011;33824;51.600;5.718;2023-06-10T08:24:41;3.45;;;2.13;;
48052;SDS011;33824;51.600;5.718;2023-06-10T08:27:06;5.40;;;2.33;;
48052;SDS011;33824;51.600;5.718;2023-06-10T08:29:32;5.70;;;2.63;;
48052;SDS011;33824;51.600;5.718;2023-06-10T08:31:58;5.60;;;2.75;;
48052;SDS011;33824;51.600;5.718;2023-06-10T08:34:24;3.17;;;2.13;;
48052;SDS011;33824;51.600;5.718;2023-06-10T08:36:49;7.15;;;2.35;;
48052;SDS011;33824;51.600;5.718;2023-06-10T08:39:23;8.65;;;2.30;;
48052;SDS011;33824;51.600;5.718;2023-06-10T08:41:57;8.85;;;2.83;;
48052;SDS011;33824;51.600;5.718;2023-06-10T08:44:31;7.88;;;2.70;;
48052;SDS011;33824;51.600;5.718;2023-06-10T08:47:01;5.82;;;3.03;;
48052;SDS011;33824;51.600;5.718;2023-06-10T08:49:34;5.53;;;2.90;;
48052;SDS011;33824;51.600;5.718;2023-06-10T08:52:03;5.28;;;3.40;;
48052;SDS011;33824;51.600;5.718;2023-06-10T08:54:32;4.82;;;2.90;;
48052;SDS011;33824;51.600;5.718;2023-06-10T08:57:03;5.75;;;3.00;;
48052;SDS011;33824;51.600;5.718;2023-06-10T08:59:31;8.23;;;2.60;;
48052;SDS011;33824;51.600;5.718;2023-06-10T09:01:57;4.60;;;2.70;;
48052;SDS011;33824;51.600;5.718;2023-06-10T09:04:23;4.28;;;2.38;;
48052;SDS011;33824;51.600;5.718;2023-06-10T09:06:50;4.05;;;2.83;;
48052;SDS011;33824;51.600;5.718;2023-06-10T09:09:16;7.03;;;2.95;;
48052;SDS011;33824;51.600;5.718;2023-06-10T09:11:44;5.32;;;2.63;;
48052;SDS011;33824;51.600;5.718;2023-06-10T09:14:09;7.25;;;2.35;;
48052;SDS011;33824;51.600;5.718;2023-06-10T09:16:37;4.53;;;2.35;;
48052;SDS011;33824;51.600;5.718;2023-06-10T09:19:03;4.03;;;2.70;;
48052;SDS011;33824;51.600;5.718;2023-06-10T09:21:33;3.75;;;2.22;;
48052;SDS011;33824;51.600;5.718;2023-06-10T09:24:01;5.60;;;2.60;;
48052;SDS011;33824;51.600;5.718;2023-06-10T09:26:27;3.95;;;2.40;;
48052;SDS011;33824;51.600;5.718;2023-06-10T09:29:05;6.45;;;2.78;;
48052;SDS011;33824;51.600;5.718;2023-06-10T09:31:36;4.22;;;2.33;;
48052;SDS011;33824;51.600;5.718;2023-06-10T09:34:09;7.53;;;3.15;;
48052;SDS011;33824;51.600;5.718;2023-06-10T09:36:37;5.47;;;2.42;;
48052;SDS011;33824;51.600;5.718;2023-06-10T09:39:03;3.92;;;2.60;;
48052;SDS011;33824;51.600;5.718;2023-06-10T09:41:34;4.65;;;2.50;;
48052;SDS011;33824;51.600;5.718;2023-06-10T09:44:01;5.10;;;2.80;;
48052;SDS011;33824;51.600;5.718;2023-06-10T09:46:31;6.20;;;2.67;;
48052;SDS011;33824;51.600;5.718;2023-06-10T09:49:00;5.53;;;2.97;;
48052;SDS011;33824;51.600;5.718;2023-06-10T09:51:25;4.97;;;2.60;;
48052;SDS011;33824;51.600;5.718;2023-06-10T09:53:51;3.30;;;1.83;;
48052;SDS011;33824;51.600;5.718;2023-06-10T09:56:17;6.85;;;3.00;;
48052;SDS011;33824;51.600;5.718;2023-06-10T09:58:44;4.78;;;2.53;;
48052;SDS011;33824;51.600;5.718;2023-06-10T10:01:12;6.82;;;2.83;;
48052;SDS011;33824;51.600;5.718;2023-06-10T10:03:46;4.18;;;2.40;;
48052;SDS011;33824;51.600;5.718;2023-06-10T10:06:14;3.17;;;2.42;;
48052;SDS011;33824;51.600;5.718;2023-06-10T10:08:40;4.47;;;2.70;;
48052;SDS011;33824;51.600;5.718;2023-06-10T10:11:06;3.97;;;2.35;;
48052;SDS011;33824;51.600;5.718;2023-06-10T10:13:35;4.82;;;2.67;;
48052;SDS011;33824;51.600;5.718;2023-06-10T10:16:12;4.85;;;2.42;;
48052;SDS011;33824;51.600;5.718;2023-06-10T10:18:41;3.88;;;2.40;;
48052;SDS011;33824;51.600;5.718;2023-06-10T10:21:14;4.93;;;2.60;;
48052;SDS011;33824;51.600;5.718;2023-06-10T10:23:44;4.57;;;2.65;;
48052;SDS011;33824;51.600;5.718;2023-06-10T10:26:23;8.13;;;2.60;;
48052;SDS011;33824;51.600;5.718;2023-06-10T10:28:55;5.38;;;2.72;;
48052;SDS011;33824;51.600;5.718;2023-06-10T10:31:26;3.95;;;2.75;;
48052;SDS011;33824;51.600;5.718;2023-06-10T10:33:55;7.78;;;2.80;;
48052;SDS011;33824;51.600;5.718;2023-06-10T10:36:24;2.90;;;2.17;;
48052;SDS011;33824;51.600;5.718;2023-06-10T10:38:51;5.28;;;2.63;;
48052;SDS011;33824;51.600;5.718;2023-06-10T10:41:16;3.95;;;2.15;;
48052;SDS011;33824;51.600;5.718;2023-06-10T10:43:44;4.60;;;2.70;;
48052;SDS011;33824;51.600;5.718;2023-06-10T10:46:12;4.03;;;2.22;;
48052;SDS011;33824;51.600;5.718;2023-06-10T10:48:39;3.47;;;2.45;;
48052;SDS011;33824;51.600;5.718;2023-06-10T10:51:09;7.07;;;2.90;;
48052;SDS011;33824;51.600;5.718;2023-06-10T10:53:38;5.28;;;2.85;;
48052;SDS011;33824;51.600;5.718;2023-06-10T10:56:09;4.57;;;2.38;;
48052;SDS011;33824;51.600;5.718;2023-06-10T10:58:39;4.22;;;2.10;;
48052;SDS011;33824;51.600;5.718;2023-06-10T11:01:14;6.40;;;2.47;;
48052;SDS011;33824;51.600;5.718;2023-06-10T11:03:43;4.60;;;2.28;;
48052;SDS011;33824;51.600;5.718;2023-06-10T11:06:14;5.53;;;2.53;;
48052;SDS011;33824;51.600;5.718;2023-06-10T11:11:19;3.70;;;2.00;;
48052;SDS011;33824;51.600;5.718;2023-06-10T11:16:29;4.90;;;2.70;;
48052;SDS011;33824;51.600;5.718;2023-06-10T11:18:56;5.57;;;1.90;;
48052;SDS011;33824;51.600;5.718;2023-06-10T11:21:24;4.68;;;2.47;;
48052;SDS011;33824;51.600;5.718;2023-06-10T11:23:51;8.15;;;2.40;;
48052;SDS011;33824;51.600;5.718;2023-06-10T11:26:17;4.25;;;2.85;;
48052;SDS011;33824;51.600;5.718;2023-06-10T11:31:19;3.22;;;2.38;;
48052;SDS011;33824;51.600;5.718;2023-06-10T11:33:55;3.72;;;2.28;;
48052;SDS011;33824;51.600;5.718;2023-06-10T11:36:25;4.28;;;2.08;;
48052;SDS011;33824;51.600;5.718;2023-06-10T11:38:53;3.78;;;2.40;;
48052;SDS011;33824;51.600;5.718;2023-06-10T11:41:28;4.97;;;2.63;;
48052;SDS011;33824;51.600;5.718;2023-06-10T11:43:56;5.85;;;2.17;;
48052;SDS011;33824;51.600;5.718;2023-06-10T11:46:25;4.32;;;2.40;;
48052;SDS011;33824;51.600;5.718;2023-06-10T11:48:55;5.65;;;2.65;;
48052;SDS011;33824;51.600;5.718;2023-06-10T11:51:26;4.35;;;2.25;;
48052;SDS011;33824;51.600;5.718;2023-06-10T11:56:22;5.03;;;2.40;;
48052;SDS011;33824;51.600;5.718;2023-06-10T11:58:58;3.25;;;2.00;;
48052;SDS011;33824;51.600;5.718;2023-06-10T12:01:29;4.10;;;3.00;;
48052;SDS011;33824;51.600;5.718;2023-06-10T12:04:04;11.27;;;2.85;;
48052;SDS011;33824;51.600;5.718;2023-06-10T12:06:37;2.88;;;2.08;;
48052;SDS011;33824;51.600;5.718;2023-06-10T12:09:26;8.60;;;2.58;;
48052;SDS011;33824;51.600;5.718;2023-06-10T12:19:57;3.65;;;2.47;;
48052;SDS011;33824;51.600;5.718;2023-06-10T12:22:23;5.57;;;3.08;;
48052;SDS011;33824;51.600;5.718;2023-06-10T12:25:00;3.78;;;2.20;;
48052;SDS011;33824;51.600;5.718;2023-06-10T12:27:28;4.72;;;2.33;;
48052;SDS011;33824;51.600;5.718;2023-06-10T12:30:00;2.97;;;2.13;;
48052;SDS011;33824;51.600;5.718;2023-06-10T12:32:41;3.92;;;2.33;;
48052;SDS011;33824;51.600;5.718;2023-06-10T12:35:09;3.42;;;1.98;;
48052;SDS011;33824;51.600;5.718;2023-06-10T12:37:37;3.20;;;2.28;;
48052;SDS011;33824;51.600;5.718;2023-06-10T12:40:04;3.90;;;2.75;;
48052;SDS011;33824;51.600;5.718;2023-06-10T12:42:35;5.55;;;2.45;;
48052;SDS011;33824;51.600;5.718;2023-06-10T12:45:02;4.32;;;2.40;;
48052;SDS011;33824;51.600;5.718;2023-06-10T12:47:36;4.78;;;2.03;;
48052;SDS011;33824;51.600;5.718;2023-06-10T12:50:06;5.03;;;2.30;;
48052;SDS011;33824;51.600;5.718;2023-06-10T12:52:32;8.00;;;2.80;;
48052;SDS011;33824;51.600;5.718;2023-06-10T12:55:01;4.32;;;2.30;;
48052;SDS011;33824;51.600;5.718;2023-06-10T12:57:27;5.13;;;2.50;;
48052;SDS011;33824;51.600;5.718;2023-06-10T12:59:52;2.60;;;2.03;;
48052;SDS011;33824;51.600;5.718;2023-06-10T13:02:21;3.97;;;2.25;;
48052;SDS011;33824;51.600;5.718;2023-06-10T13:04:49;4.88;;;2.25;;
48052;SDS011;33824;51.600;5.718;2023-06-10T13:07:16;3.70;;;2.28;;
48052;SDS011;33824;51.600;5.718;2023-06-10T13:09:42;4.50;;;2.20;;
48052;SDS011;33824;51.600;5.718;2023-06-10T13:12:08;3.72;;;2.10;;
48052;SDS011;33824;51.600;5.718;2023-06-10T13:14:34;4.25;;;2.13;;
48052;SDS011;33824;51.600;5.718;2023-06-10T13:16:59;3.72;;;2.15;;
48052;SDS011;33824;51.600;5.718;2023-06-10T13:19:25;4.72;;;2.38;;
48052;SDS011;33824;51.600;5.718;2023-06-10T13:21:51;5.78;;;2.42;;
48052;SDS011;33824;51.600;5.718;2023-06-10T13:24:17;4.32;;;2.40;;
48052;SDS011;33824;51.600;5.718;2023-06-10T13:26:43;3.80;;;2.38;;
48052;SDS011;33824;51.600;5.718;2023-06-10T13:29:09;3.72;;;2.30;;
48052;SDS011;33824;51.600;5.718;2023-06-10T13:31:39;3.17;;;2.17;;
48052;SDS011;33824;51.600;5.718;2023-06-10T13:34:05;3.55;;;2.40;;
48052;SDS011;33824;51.600;5.718;2023-06-10T13:36:31;5.50;;;2.70;;
48052;SDS011;33824;51.600;5.718;2023-06-10T13:38:57;3.58;;;2.35;;
48052;SDS011;33824;51.600;5.718;2023-06-10T13:41:22;3.85;;;2.20;;
48052;SDS011;33824;51.600;5.718;2023-06-10T13:43:48;3.20;;;2.22;;
48052;SDS011;33824;51.600;5.718;2023-06-10T13:46:13;4.35;;;2.30;;
48052;SDS011;33824;51.600;5.718;2023-06-10T13:48:39;2.67;;;1.85;;
48052;SDS011;33824;51.600;5.718;2023-06-10T13:51:05;3.75;;;2.13;;
48052;SDS011;33824;51.600;5.718;2023-06-10T13:53:31;3.50;;;2.40;;
48052;SDS011;33824;51.600;5.718;2023-06-10T13:55:57;4.05;;;2.42;;
48052;SDS011;33824;51.600;5.718;2023-06-10T13:58:23;5.05;;;2.88;;
48052;SDS011;33824;51.600;5.718;2023-06-10T14:00:48;2.45;;;1.77;;
48052;SDS011;33824;51.600;5.718;2023-06-10T14:03:14;3.58;;;2.70;;
48052;SDS011;33824;51.600;5.718;2023-06-10T14:05:40;2.78;;;1.90;;
48052;SDS011;33824;51.600;5.718;2023-06-10T14:08:05;3.60;;;2.50;;
48052;SDS011;33824;51.600;5.718;2023-06-10T14:10:31;4.07;;;2.10;;
48052;SDS011;33824;51.600;5.718;2023-06-10T14:12:57;4.90;;;2.03;;
48052;SDS011;33824;51.600;5.718;2023-06-10T14:15:22;4.55;;;2.25;;
48052;SDS011;33824;51.600;5.718;2023-06-10T14:17:48;3.28;;;2.33;;
48052;SDS011;33824;51.600;5.718;2023-06-10T14:20:13;3.50;;;2.70;;
48052;SDS011;33824;51.600;5.718;2023-06-10T14:22:39;5.93;;;2.80;;
48052;SDS011;33824;51.600;5.718;2023-06-10T14:25:05;3.63;;;2.20;;
48052;SDS011;33824;51.600;5.718;2023-06-10T14:27:31;2.95;;;2.22;;
48052;SDS011;33824;51.600;5.718;2023-06-10T14:29:57;4.22;;;2.58;;
48052;SDS011;33824;51.600;5.718;2023-06-10T14:32:22;5.50;;;2.30;;
48052;SDS011;33824;51.600;5.718;2023-06-10T14:34:48;5.00;;;2.20;;
48052;SDS011;33824;51.600;5.718;2023-06-10T14:37:13;3.45;;;2.15;;
48052;SDS011;33824;51.600;5.718;2023-06-10T14:39:39;6.03;;;2.40;;
48052;SDS011;33824;51.600;5.718;2023-06-10T14:42:05;3.17;;;2.05;;
48052;SDS011;33824;51.600;5.718;2023-06-10T14:44:31;3.97;;;2.42;;
48052;SDS011;33824;51.600;5.718;2023-06-10T14:46:57;4.60;;;2.30;;
48052;SDS011;33824;51.600;5.718;2023-06-10T14:49:22;3.78;;;2.25;;
48052;SDS011;33824;51.600;5.718;2023-06-10T14:51:48;3.92;;;2.40;;
48052;SDS011;33824;51.600;5.718;2023-06-10T14:54:15;4.30;;;2.00;;
48052;SDS011;33824;51.600;5.718;2023-06-10T14:56:41;3.80;;;2.22;;
48052;SDS011;33824;51.600;5.718;2023-06-10T14:59:06;4.30;;;2.22;;
48052;SDS011;33824;51.600;5.718;2023-06-10T15:01:32;4.38;;;2.58;;
48052;SDS011;33824;51.600;5.718;2023-06-10T15:03:57;3.13;;;2.08;;
48052;SDS011;33824;51.600;5.718;2023-06-10T15:06:23;3.58;;;2.20;;
48052;SDS011;33824;51.600;5.718;2023-06-10T15:08:49;3.67;;;2.47;;
48052;SDS011;33824;51.600;5.718;2023-06-10T15:11:15;3.50;;;2.17;;